Florida A & M, Florida
Current Conditions -  °F | °C
As of 3:37 PM on Tuesday 25 Nov 2014 (Local Time) from KTLH Reporting Station
Light Rain Light Rain  
Wind Chill: 55°   Ceiling: 800
Heat Index: 55°   Visibility: 10mi
Dew Point: 52°   Wind: 7mph
Humidity: 89%   Direction: 10°N
Pressure: 29.97"   Gusts: NA
Location:  30.4262°N, 84.2888°W
Report Text: KTLH 252037Z 01006KT 10SM -RA BKN008 OVC070 13/11 A2997 RMK AO2 RAB1958 CIG 005V009 P0005 T01280111
Loading
Personal Weather Stations






























Interactive Weather Map New forecast layout! Learn more

10-Day Weather Forecast

Advertisements
Track Severe Weather on mobile